createdAt,value
2023-02-23T00:02:03.806Z,5.36
2023-02-23T00:04:31.994Z,5.93
2023-02-23T00:06:59.847Z,5.81
2023-02-23T00:09:35.098Z,5.83
2023-02-23T00:12:09.663Z,5.54
2023-02-23T00:14:38.716Z,5.53
2023-02-23T00:17:14.934Z,5.72
2023-02-23T00:19:43.547Z,5.92
2023-02-23T00:22:14.535Z,5.39
2023-02-23T00:24:42.789Z,5.34
2023-02-23T00:27:17.357Z,5.25
2023-02-23T00:29:49.215Z,5.16
2023-02-23T00:32:19.952Z,5.39
2023-02-23T00:34:49.888Z,5.68
2023-02-23T00:37:19.494Z,5.10
2023-02-23T00:39:47.394Z,5.42
2023-02-23T00:42:15.837Z,5.73
2023-02-23T00:44:43.655Z,5.42
2023-02-23T00:47:11.496Z,5.23
2023-02-23T00:49:39.348Z,5.40
2023-02-23T00:52:07.640Z,5.66
2023-02-23T00:54:35.522Z,5.33
2023-02-23T00:57:04.079Z,5.02
2023-02-23T00:59:31.952Z,5.39
2023-02-23T01:01:59.942Z,5.32
2023-02-23T01:04:27.872Z,5.17
2023-02-23T01:06:55.732Z,5.25
2023-02-23T01:09:28.357Z,5.02
2023-02-23T01:11:57.734Z,5.08
2023-02-23T01:14:26.129Z,5.09
2023-02-23T01:16:55.014Z,5.28
2023-02-23T01:19:22.926Z,5.36
2023-02-23T01:21:50.899Z,5.04
2023-02-23T01:24:18.727Z,4.84
2023-02-23T01:26:47.624Z,4.88
2023-02-23T01:29:17.941Z,5.20
2023-02-23T01:31:51.154Z,5.21
2023-02-23T01:34:21.652Z,5.30
2023-02-23T01:36:49.997Z,5.12
2023-02-23T01:39:20.709Z,4.91
2023-02-23T01:41:51.705Z,4.97
2023-02-23T01:44:19.399Z,5.18
2023-02-23T01:46:49.262Z,5.13
2023-02-23T01:49:25.643Z,4.79
2023-02-23T01:52:13.336Z,4.82
2023-02-23T01:54:53.553Z,4.94
2023-02-23T01:57:27.120Z,4.78
2023-02-23T01:59:55.661Z,4.84
2023-02-23T02:02:33.357Z,4.93
2023-02-23T02:05:04.567Z,5.46
2023-02-23T02:07:35.213Z,5.05
2023-02-23T02:10:13.690Z,4.89
2023-02-23T02:12:56.223Z,5.09
2023-02-23T02:15:30.073Z,5.38
2023-02-23T02:18:43.794Z,5.05
2023-02-23T02:21:51.884Z,5.07
2023-02-23T02:25:11.119Z,5.52
2023-02-23T02:28:22.249Z,5.16
2023-02-23T02:31:43.514Z,5.02
2023-02-23T02:35:18.890Z,4.93
2023-02-23T02:38:34.800Z,5.38
2023-02-23T02:41:20.579Z,5.05
2023-02-23T02:48:12.009Z,4.53
2023-02-23T02:51:04.383Z,4.79
2023-02-23T02:53:58.091Z,5.00
2023-02-23T02:56:27.162Z,5.50
2023-02-23T02:58:55.777Z,5.21
2023-02-23T03:01:42.190Z,4.82
2023-02-23T03:04:43.853Z,4.88
2023-02-23T03:07:45.935Z,5.02
2023-02-23T03:11:22.464Z,4.75
2023-02-23T03:15:04.961Z,5.02
2023-02-23T03:18:06.441Z,4.87
2023-02-23T03:20:52.660Z,4.92
2023-02-23T03:24:05.841Z,4.77
2023-02-23T03:27:06.306Z,4.85
2023-02-23T03:30:22.166Z,4.60
2023-02-23T03:33:23.929Z,4.48
2023-02-23T03:36:26.808Z,4.62
2023-02-23T03:39:59.665Z,5.07
2023-02-23T03:42:54.203Z,4.70
2023-02-23T03:45:44.285Z,4.78
2023-02-23T03:48:34.906Z,4.89
2023-02-23T03:51:27.636Z,4.75
2023-02-23T03:54:37.621Z,4.40
2023-02-23T03:57:30.998Z,4.81
2023-02-23T04:00:23.992Z,5.06
2023-02-23T04:03:13.117Z,4.63
2023-02-23T04:06:02.496Z,4.40
2023-02-23T04:08:56.669Z,4.34
2023-02-23T04:12:09.511Z,4.67
2023-02-23T04:14:59.699Z,4.42
2023-02-23T04:17:32.439Z,4.41
2023-02-23T04:20:00.677Z,4.58
2023-02-23T04:22:28.576Z,4.71
2023-02-23T04:24:56.817Z,4.25
2023-02-23T04:27:26.019Z,4.23
2023-02-23T04:29:53.918Z,4.45
2023-02-23T04:32:21.955Z,4.27
2023-02-23T04:34:50.384Z,4.20
2023-02-23T04:37:18.502Z,4.37
2023-02-23T04:39:49.677Z,4.28
2023-02-23T04:42:19.113Z,4.23
2023-02-23T04:44:47.400Z,4.44
2023-02-23T04:47:16.572Z,4.63
2023-02-23T04:49:44.811Z,4.32
2023-02-23T04:52:12.728Z,4.69
2023-02-23T04:54:41.760Z,4.48
2023-02-23T04:57:10.230Z,4.58
2023-02-23T04:59:38.197Z,4.20
2023-02-23T05:02:06.403Z,3.91
2023-02-23T05:04:35.380Z,4.42
2023-02-23T05:07:04.528Z,4.35
2023-02-23T05:09:33.339Z,3.96
2023-02-23T05:12:01.548Z,3.73
2023-02-23T05:14:30.157Z,3.83
2023-02-23T05:16:58.059Z,3.72
2023-02-23T05:19:27.311Z,3.47
2023-02-23T05:21:55.208Z,3.75
2023-02-23T05:24:23.037Z,3.93
2023-02-23T05:26:51.073Z,3.63
2023-02-23T05:29:19.238Z,3.49
2023-02-23T05:31:48.489Z,3.79
2023-02-23T05:34:16.891Z,3.70
2023-02-23T05:36:44.746Z,3.91
2023-02-23T05:39:12.625Z,3.80
2023-02-23T05:41:42.894Z,4.06
2023-02-23T05:44:10.778Z,3.82
2023-02-23T05:46:39.235Z,4.18
2023-02-23T05:49:07.232Z,4.07
2023-02-23T05:51:35.453Z,4.19
2023-02-23T05:54:03.423Z,4.29
2023-02-23T05:56:31.360Z,3.93
2023-02-23T05:58:59.788Z,4.24
2023-02-23T06:01:28.189Z,4.25
2023-02-23T06:03:56.629Z,3.87
2023-02-23T06:06:25.629Z,3.97
2023-02-23T06:08:54.614Z,3.81
2023-02-23T06:11:22.852Z,4.03
2023-02-23T06:13:50.824Z,3.80
2023-02-23T06:16:18.880Z,3.99
2023-02-23T06:18:47.053Z,3.92
2023-02-23T06:21:14.973Z,4.05
2023-02-23T06:23:43.029Z,4.10
2023-02-23T06:26:11.023Z,4.12
2023-02-23T06:28:38.887Z,4.32
2023-02-23T06:31:06.841Z,4.48
2023-02-23T06:33:35.128Z,3.93
2023-02-23T06:36:03.095Z,3.93
2023-02-23T06:38:31.020Z,4.24
2023-02-23T06:40:58.926Z,4.22
2023-02-23T06:43:26.918Z,4.02
2023-02-23T06:45:55.635Z,4.02
2023-02-23T06:48:23.469Z,3.90
2023-02-23T06:50:51.338Z,3.74
2023-02-23T06:53:21.411Z,3.94
2023-02-23T06:55:49.369Z,4.49
2023-02-23T06:58:17.684Z,4.13
2023-02-23T07:00:46.780Z,4.16
2023-02-23T07:03:15.481Z,4.26
2023-02-23T07:05:43.447Z,4.49
2023-02-23T07:08:11.327Z,4.38
2023-02-23T07:10:39.497Z,4.50
2023-02-23T07:13:07.335Z,3.97
2023-02-23T07:15:41.759Z,4.69
2023-02-23T07:18:09.708Z,4.50
2023-02-23T07:20:38.009Z,4.98
2023-02-23T07:23:05.885Z,5.13
2023-02-23T07:25:33.763Z,4.89
2023-02-23T07:28:02.720Z,4.84
2023-02-23T07:30:30.595Z,5.07
2023-02-23T07:32:58.488Z,4.97
2023-02-23T07:35:26.459Z,4.64
2023-02-23T07:37:55.750Z,5.27
2023-02-23T07:40:24.157Z,5.26
2023-02-23T07:42:52.551Z,5.62
2023-02-23T07:45:20.470Z,4.89
2023-02-23T07:47:48.843Z,4.95
2023-02-23T07:50:16.996Z,5.65
2023-02-23T07:52:45.007Z,5.68
2023-02-23T07:55:13.208Z,5.27
2023-02-23T07:57:44.475Z,5.90
2023-02-23T08:00:13.134Z,6.17
2023-02-23T08:02:41.048Z,6.15
2023-02-23T08:05:09.194Z,5.22
2023-02-23T08:07:37.611Z,5.88
2023-02-23T08:10:06.272Z,6.40
2023-02-23T08:12:34.682Z,6.19
2023-02-23T08:15:13.948Z,6.03
2023-02-23T08:17:41.922Z,6.34
2023-02-23T08:20:11.054Z,6.93
2023-02-23T08:22:49.475Z,7.06
2023-02-23T08:25:18.517Z,7.16
2023-02-23T08:27:47.191Z,7.41
2023-02-23T08:30:15.751Z,7.19
2023-02-23T08:32:43.661Z,6.66
2023-02-23T08:35:12.018Z,6.69
2023-02-23T08:37:41.866Z,6.90
2023-02-23T08:40:12.175Z,6.26
2023-02-23T08:42:43.421Z,6.34
2023-02-23T08:45:13.985Z,7.07
2023-02-23T08:47:42.233Z,7.24
2023-02-23T08:50:12.578Z,7.23
2023-02-23T08:52:41.992Z,7.66
2023-02-23T08:55:11.741Z,7.79
2023-02-23T08:57:39.859Z,7.29
2023-02-23T09:00:14.137Z,8.00
2023-02-23T09:02:48.113Z,8.27
2023-02-23T09:05:17.587Z,8.46
2023-02-23T09:07:48.998Z,8.40
2023-02-23T09:10:20.472Z,8.66
2023-02-23T09:12:51.343Z,8.31
2023-02-23T09:15:19.697Z,8.51
2023-02-23T09:17:48.150Z,8.30
2023-02-23T09:20:17.675Z,8.18
2023-02-23T09:22:48.724Z,8.71
2023-02-23T09:25:22.485Z,8.85
2023-02-23T09:27:59.615Z,8.80
2023-02-23T09:30:28.272Z,8.49
2023-02-23T09:32:56.445Z,8.87
2023-02-23T09:35:25.531Z,9.01
2023-02-23T09:37:56.274Z,9.08
2023-02-23T09:40:39.156Z,9.28
2023-02-23T09:43:33.719Z,9.44
2023-02-23T09:47:04.380Z,9.49
2023-02-23T09:49:39.568Z,9.52
2023-02-23T09:52:28.502Z,9.16
2023-02-23T09:54:58.084Z,9.46
2023-02-23T09:57:43.729Z,8.74
2023-02-23T10:00:27.720Z,9.51
2023-02-23T10:03:12.619Z,9.55
2023-02-23T10:05:54.286Z,10.16
2023-02-23T10:09:26.599Z,10.08
2023-02-23T10:12:33.749Z,10.08
2023-02-23T10:15:43.890Z,10.34
2023-02-23T10:18:47.411Z,10.57
2023-02-23T10:21:26.832Z,10.32
2023-02-23T10:24:32.978Z,10.58
2023-02-23T10:27:18.571Z,11.19
2023-02-23T10:30:00.650Z,11.34
2023-02-23T10:32:50.226Z,11.26
2023-02-23T10:35:24.557Z,11.13
2023-02-23T10:37:54.372Z,11.41
2023-02-23T10:40:29.096Z,11.77
2023-02-23T10:42:58.657Z,11.70
2023-02-23T10:45:29.792Z,11.30
2023-02-23T10:48:24.860Z,11.77
2023-02-23T10:51:02.718Z,11.34
2023-02-23T10:53:38.974Z,11.97
2023-02-23T10:56:14.594Z,12.24
2023-02-23T10:59:02.465Z,12.43
2023-02-23T11:02:00.478Z,12.75
2023-02-23T11:04:35.814Z,12.79
2023-02-23T11:07:29.640Z,12.67
2023-02-23T11:10:00.310Z,12.98
2023-02-23T11:12:41.845Z,12.86
2023-02-23T11:15:32.024Z,13.37
2023-02-23T11:18:07.569Z,13.52
2023-02-23T11:20:41.659Z,13.50
2023-02-23T11:23:34.318Z,13.58
2023-02-23T11:26:35.874Z,13.77
2023-02-23T11:29:28.278Z,14.21
2023-02-23T11:31:59.277Z,14.15
2023-02-23T11:34:35.429Z,13.65
2023-02-23T11:37:14.410Z,13.62
2023-02-23T11:40:04.037Z,13.97
2023-02-23T11:42:33.431Z,14.01
2023-02-23T11:45:20.848Z,13.90
2023-02-23T11:47:59.402Z,14.04
2023-02-23T11:50:36.407Z,14.38
2023-02-23T11:53:15.351Z,14.57
2023-02-23T11:55:55.676Z,13.82
2023-02-23T11:58:40.443Z,14.44
2023-02-23T12:01:14.187Z,14.58
2023-02-23T12:04:00.262Z,14.27
2023-02-23T12:06:41.853Z,14.61
2023-02-23T12:09:34.084Z,14.51
2023-02-23T12:12:18.922Z,14.85
2023-02-23T12:15:09.235Z,14.91
2023-02-23T12:17:50.092Z,15.02
2023-02-23T12:20:41.187Z,15.11
2023-02-23T12:23:28.420Z,14.90
2023-02-23T12:26:22.725Z,15.07
2023-02-23T12:29:06.245Z,14.98
2023-02-23T12:32:08.969Z,15.17
2023-02-23T12:35:06.313Z,15.02
2023-02-23T12:37:58.581Z,15.28
2023-02-23T12:40:36.636Z,15.35
2023-02-23T12:43:37.604Z,15.11
2023-02-23T12:46:22.106Z,15.11
2023-02-23T12:49:43.314Z,15.33
2023-02-23T12:52:26.985Z,14.88
2023-02-23T12:54:55.909Z,15.12
2023-02-23T12:58:25.864Z,15.08
2023-02-23T13:01:05.978Z,15.35
2023-02-23T13:03:50.651Z,15.22
2023-02-23T13:06:39.116Z,15.39
2023-02-23T13:10:16.180Z,15.29
2023-02-23T13:13:16.752Z,15.14
2023-02-23T13:16:10.511Z,15.41
2023-02-23T13:19:15.169Z,15.26
2023-02-23T13:21:53.850Z,15.36
2023-02-23T13:24:36.538Z,15.14
2023-02-23T13:27:23.423Z,15.50
2023-02-23T13:29:54.969Z,15.48
2023-02-23T13:32:32.230Z,15.39
2023-02-23T13:35:08.352Z,15.54
2023-02-23T13:38:08.209Z,15.40
2023-02-23T13:40:44.357Z,15.45
2023-02-23T13:43:49.189Z,15.57
2023-02-23T13:46:53.794Z,15.44
2023-02-23T13:49:47.123Z,15.32
2023-02-23T13:52:41.459Z,15.38
2023-02-23T13:55:32.628Z,15.44
2023-02-23T13:58:22.402Z,15.44
2023-02-23T14:01:43.612Z,15.25
2023-02-23T14:04:34.426Z,15.21
2023-02-23T14:07:11.480Z,15.21
2023-02-23T14:09:56.536Z,14.94
2023-02-23T14:13:06.312Z,14.86
2023-02-23T14:15:40.395Z,14.98
2023-02-23T14:18:26.316Z,14.92
2023-02-23T14:21:29.305Z,14.82
2023-02-23T14:24:19.335Z,14.95
2023-02-23T14:27:41.445Z,14.55
2023-02-23T14:30:19.810Z,14.48
2023-02-23T14:32:50.525Z,14.55
2023-02-23T14:35:33.760Z,14.19
2023-02-23T14:38:47.578Z,13.83
2023-02-23T14:41:28.281Z,14.25
2023-02-23T14:44:43.295Z,14.25
2023-02-23T14:47:20.698Z,13.88
2023-02-23T14:50:18.905Z,14.15
2023-02-23T14:52:47.505Z,14.15
2023-02-23T14:55:29.411Z,14.15
2023-02-23T14:57:58.917Z,13.90
2023-02-23T15:00:43.853Z,13.90
2023-02-23T15:03:13.848Z,13.97
2023-02-23T15:05:57.564Z,13.95
2023-02-23T15:08:30.046Z,13.93
2023-02-23T15:11:18.889Z,13.86
2023-02-23T15:13:52.178Z,13.82
2023-02-23T15:16:36.288Z,13.70
2023-02-23T15:19:05.441Z,13.71
2023-02-23T15:21:35.761Z,13.87
2023-02-23T15:24:22.924Z,13.91
2023-02-23T15:26:52.042Z,13.91
2023-02-23T15:29:30.594Z,13.92
2023-02-23T15:32:24.752Z,13.81
2023-02-23T15:34:55.884Z,13.86
2023-02-23T15:40:23.842Z,13.81
2023-02-23T15:43:00.597Z,13.72
2023-02-23T15:45:48.813Z,13.79
2023-02-23T15:48:27.883Z,13.54
2023-02-23T15:50:57.835Z,13.62
2023-02-23T15:53:41.025Z,13.44
2023-02-23T15:56:20.186Z,13.50
2023-02-23T15:58:57.280Z,13.47
2023-02-23T16:01:30.354Z,13.42
2023-02-23T16:04:08.325Z,13.40
2023-02-23T16:06:53.216Z,13.42
2023-02-23T16:09:21.674Z,13.40
2023-02-23T16:12:20.534Z,13.35
2023-02-23T16:15:03.343Z,13.26
2023-02-23T16:17:52.183Z,13.19
2023-02-23T16:20:42.558Z,13.02
2023-02-23T16:23:59.386Z,13.11
2023-02-23T16:26:48.003Z,13.13
2023-02-23T16:29:44.408Z,13.06
2023-02-23T16:32:20.831Z,12.82
2023-02-23T16:35:01.754Z,12.94
2023-02-23T16:37:29.930Z,12.91
2023-02-23T16:39:57.896Z,12.91
2023-02-23T16:42:33.563Z,12.93
2023-02-23T16:45:02.163Z,12.95
2023-02-23T16:47:48.238Z,12.90
2023-02-23T16:50:24.301Z,12.81
2023-02-23T16:52:53.630Z,12.81
2023-02-23T16:55:28.723Z,12.61
2023-02-23T16:58:07.821Z,12.64
2023-02-23T17:00:35.860Z,12.66
2023-02-23T17:03:06.667Z,12.67
2023-02-23T17:05:34.605Z,12.54
2023-02-23T17:08:02.858Z,12.54
2023-02-23T17:10:34.841Z,12.56
2023-02-23T17:13:18.791Z,12.43
2023-02-23T17:15:51.864Z,12.44
2023-02-23T17:20:55.303Z,12.44
2023-02-23T17:23:29.700Z,12.38
2023-02-23T17:25:58.354Z,12.43
2023-02-23T17:28:26.267Z,12.40
2023-02-23T17:30:54.298Z,12.38
2023-02-23T17:33:26.989Z,12.35
2023-02-23T17:35:55.238Z,12.38
2023-02-23T17:38:23.154Z,12.40
2023-02-23T17:40:51.001Z,12.35
2023-02-23T17:43:21.557Z,12.26
2023-02-23T17:45:50.579Z,12.31
2023-02-23T17:48:18.650Z,12.24
2023-02-23T17:50:46.488Z,12.26
2023-02-23T17:53:14.398Z,12.30
2023-02-23T17:55:42.368Z,12.27
2023-02-23T17:58:10.795Z,12.08
2023-02-23T18:00:39.742Z,12.12
2023-02-23T18:03:07.694Z,12.18
2023-02-23T18:05:35.920Z,12.23
2023-02-23T18:08:03.778Z,12.13
2023-02-23T18:10:31.636Z,12.01
2023-02-23T18:12:59.455Z,12.07
2023-02-23T18:15:27.439Z,12.10
2023-02-23T18:17:57.437Z,11.84
2023-02-23T18:20:26.164Z,11.76
2023-02-23T18:22:54.086Z,11.96
2023-02-23T18:25:31.108Z,12.00
2023-02-23T18:27:59.696Z,11.89
2023-02-23T18:30:27.622Z,11.74
2023-02-23T18:33:00.525Z,11.77
2023-02-23T18:35:33.196Z,11.94
2023-02-23T18:38:01.493Z,11.88
2023-02-23T18:40:29.492Z,11.93
2023-02-23T18:42:58.966Z,11.86
2023-02-23T18:45:27.658Z,11.95
2023-02-23T18:47:56.307Z,11.95
2023-02-23T18:50:26.260Z,11.84
2023-02-23T18:52:56.583Z,11.42
2023-02-23T18:55:24.756Z,11.58
2023-02-23T18:57:53.081Z,11.67
2023-02-23T19:00:21.740Z,11.57
2023-02-23T19:02:49.769Z,11.78
2023-02-23T19:05:20.760Z,10.83
2023-02-23T19:07:49.556Z,11.46
2023-02-23T19:10:17.428Z,11.61
2023-02-23T19:12:45.322Z,11.60
2023-02-23T19:15:13.397Z,10.84
2023-02-23T19:17:41.394Z,10.97
2023-02-23T19:20:13.726Z,11.19
2023-02-23T19:22:42.799Z,11.32
2023-02-23T19:25:14.193Z,11.31
2023-02-23T19:27:42.877Z,11.50
2023-02-23T19:30:12.406Z,11.34
2023-02-23T19:32:40.614Z,11.39
2023-02-23T19:35:14.772Z,11.54
2023-02-23T19:37:52.701Z,11.50
2023-02-23T19:40:23.867Z,11.51
2023-02-23T19:42:52.965Z,11.49
2023-02-23T19:45:21.799Z,11.17
2023-02-23T19:47:53.240Z,11.32
2023-02-23T19:50:21.560Z,11.39
2023-02-23T19:52:49.923Z,11.43
2023-02-23T19:55:20.178Z,11.11
2023-02-23T19:57:48.168Z,10.65
2023-02-23T20:00:16.798Z,10.31
2023-02-23T20:02:44.713Z,10.30
2023-02-23T20:05:16.269Z,9.93
2023-02-23T20:07:44.601Z,10.46
2023-02-23T20:10:16.108Z,10.64
2023-02-23T20:12:44.508Z,10.26
2023-02-23T20:15:14.817Z,10.28
2023-02-23T20:17:42.785Z,9.97
2023-02-23T20:20:11.858Z,10.16
2023-02-23T20:22:43.178Z,10.12
2023-02-23T20:25:16.356Z,9.45
2023-02-23T20:27:44.824Z,9.68
2023-02-23T20:30:13.700Z,9.80
2023-02-23T20:32:41.707Z,9.62
2023-02-23T20:35:12.890Z,9.67
2023-02-23T20:37:42.117Z,9.53
2023-02-23T20:40:17.471Z,9.90
2023-02-23T20:42:48.313Z,9.95
2023-02-23T20:45:21.750Z,9.77
2023-02-23T20:47:53.560Z,9.86
2023-02-23T20:50:33.969Z,9.83
2023-02-23T20:53:05.410Z,9.73
2023-02-23T20:55:33.457Z,9.98
2023-02-23T20:58:01.633Z,9.94
2023-02-23T21:00:32.083Z,9.84
2023-02-23T21:03:02.680Z,9.83
2023-02-23T21:05:40.408Z,9.82
2023-02-23T21:08:10.486Z,10.02
2023-02-23T21:10:40.118Z,10.34
2023-02-23T21:13:12.321Z,10.29
2023-02-23T21:15:42.551Z,10.23
2023-02-23T21:18:11.083Z,9.82
2023-02-23T21:20:40.091Z,10.07
2023-02-23T21:23:08.015Z,9.95
2023-02-23T21:25:35.975Z,10.26
2023-02-23T21:28:03.880Z,10.17
2023-02-23T21:30:31.875Z,10.27
2023-02-23T21:33:00.193Z,10.13
2023-02-23T21:35:28.240Z,10.14
2023-02-23T21:37:56.928Z,9.52
2023-02-23T21:40:24.919Z,10.07
2023-02-23T21:42:53.242Z,9.69
2023-02-23T21:45:21.404Z,9.81
2023-02-23T21:47:49.639Z,9.90
2023-02-23T21:50:19.665Z,9.83
2023-02-23T21:52:48.716Z,10.03
2023-02-23T21:55:21.916Z,10.19
2023-02-23T21:57:51.759Z,9.90
2023-02-23T22:00:21.523Z,9.80
2023-02-23T22:02:50.697Z,10.08
2023-02-23T22:05:19.677Z,9.77
2023-02-23T22:07:51.435Z,10.00
2023-02-23T22:10:24.843Z,9.71
2023-02-23T22:12:56.746Z,9.71
2023-02-23T22:15:27.871Z,9.96
2023-02-23T22:17:56.576Z,10.07
2023-02-23T22:20:25.960Z,10.16
2023-02-23T22:22:53.961Z,9.70
2023-02-23T22:25:22.030Z,9.80
2023-02-23T22:27:50.007Z,9.81
2023-02-23T22:30:20.430Z,9.80
2023-02-23T22:32:48.659Z,9.70
2023-02-23T22:35:16.868Z,9.89
2023-02-23T22:37:47.386Z,10.02
2023-02-23T22:40:18.209Z,9.61
2023-02-23T22:42:48.404Z,9.89
2023-02-23T22:45:17.959Z,10.11
2023-02-23T22:47:45.992Z,9.94
2023-02-23T22:50:17.813Z,9.85
2023-02-23T22:52:47.011Z,10.10
2023-02-23T22:55:14.984Z,10.21
2023-02-23T22:57:43.066Z,10.00
2023-02-23T23:00:20.737Z,9.77
2023-02-23T23:02:48.920Z,9.52
2023-02-23T23:05:17.791Z,9.99
2023-02-23T23:07:48.678Z,9.77
2023-02-23T23:10:18.740Z,10.18
2023-02-23T23:12:46.965Z,10.01
2023-02-23T23:15:17.023Z,10.06
2023-02-23T23:17:48.347Z,10.13
2023-02-23T23:20:25.536Z,10.21
2023-02-23T23:22:56.992Z,10.17
2023-02-23T23:25:25.092Z,9.87
2023-02-23T23:27:53.006Z,10.19
2023-02-23T23:30:21.276Z,10.16
2023-02-23T23:32:50.346Z,10.03
2023-02-23T23:35:21.789Z,9.89
2023-02-23T23:37:52.878Z,10.21
2023-02-23T23:40:24.256Z,9.63
2023-02-23T23:42:52.561Z,9.64
2023-02-23T23:45:24.215Z,9.39
2023-02-23T23:47:52.353Z,9.42
2023-02-23T23:50:26.414Z,9.72
2023-02-23T23:52:54.438Z,9.71
2023-02-23T23:55:22.308Z,9.20
2023-02-23T23:57:50.145Z,9.56
